Time;durP1;ratioP1;P1;durP2;ratioP2;P2;SDS_P1;SDS_P2;PMS_P1;PMS_P2;Temp;Humidity;BMP_temperature;BMP_pressure;BME280_temperature;BME280_humidity;BME280_pressure;Samples;Min_cycle;Max_cycle;Signal;HPM_P1;HPM_P2
2023/05/05 00:01:11;;;;;;;;;;;16.90;99.90;;;;;;5053090;28;19932;-68
2023/05/05 00:03:38;;;;;;;;;;;16.80;99.90;;;;;;5053991;28;20056;-68
2023/05/05 00:06:05;;;;;;;;;;;16.80;99.90;;;;;;5068461;28;19924;-68
2023/05/05 00:08:32;;;;;;;;;;;16.70;99.90;;;;;;5068676;28;19932;-68
2023/05/05 00:11:00;;;;;;;;;;;16.50;99.90;;;;;;5053242;28;19925;-68
2023/05/05 00:13:27;;;;;;;;;;;16.40;99.90;;;;;;5071892;28;19928;-68
2023/05/05 00:15:54;;;;;;;;;;;16.30;99.90;;;;;;5060831;28;20346;-66
2023/05/05 00:18:21;;;;;;;;;;;16.20;99.90;;;;;;5071906;28;19932;-68
2023/05/05 00:20:48;;;;;;;;;;;16.10;99.90;;;;;;5069520;28;20341;-67
2023/05/05 00:23:15;;;;;;;;;;;16.10;99.90;;;;;;5064680;28;19925;-67
2023/05/05 00:25:42;;;;;;;;;;;16.10;99.90;;;;;;5072030;28;20285;-66
2023/05/05 00:28:10;;;;;;;;;;;16.10;99.90;;;;;;5064686;28;20328;-67
2023/05/05 00:30:37;;;;;;;;;;;16.10;99.90;;;;;;5070538;28;19924;-67
2023/05/05 00:33:04;;;;;;;;;;;16.10;99.90;;;;;;5065585;28;19928;-69
2023/05/05 00:35:30;;;;;;;;;;;16.10;99.90;;;;;;5069700;28;19924;-68
2023/05/05 00:37:58;;;;;;;;;;;16.10;99.90;;;;;;5065069;28;19924;-67
2023/05/05 00:40:25;;;;;;;;;;;16.00;99.90;;;;;;5058687;28;19924;-68
2023/05/05 00:42:52;;;;;;;;;;;16.00;99.90;;;;;;5070156;28;19924;-68
2023/05/05 00:45:20;;;;;;;;;;;16.00;99.90;;;;;;5055767;28;19932;-67
2023/05/05 00:47:48;;;;;;;;;;;16.00;99.90;;;;;;5065428;28;19931;-66
2023/05/05 00:50:21;;;;;;;;;;;15.90;99.90;;;;;;5058492;28;20277;-67
2023/05/05 00:52:48;;;;;;;;;;;15.90;99.90;;;;;;5072501;28;19924;-67
2023/05/05 00:55:15;;;;;;;;;;;15.80;99.90;;;;;;5062241;28;19925;-68
2023/05/05 00:57:41;;;;;;;;;;;15.70;99.90;;;;;;5065483;28;19931;-68
2023/05/05 01:00:09;;;;;;;;;;;15.70;99.90;;;;;;5060785;28;19978;-68
2023/05/05 01:02:38;;;;;;;;;;;15.60;99.90;;;;;;5066582;28;19924;-68
2023/05/05 01:05:05;;;;;;;;;;;15.60;99.90;;;;;;5068417;28;19974;-68
2023/05/05 01:07:36;;;;;;;;;;;15.60;99.90;;;;;;5065252;28;19929;-69
2023/05/05 01:10:05;;;;;;;;;;;15.50;99.90;;;;;;5070590;28;19925;-68
2023/05/05 01:12:35;;;;;;;;;;;15.50;99.90;;;;;;5067037;28;19928;-68
2023/05/05 01:15:10;;;;;;;;;;;15.40;99.90;;;;;;5064957;28;20431;-68
2023/05/05 01:17:41;;;;;;;;;;;15.40;99.90;;;;;;5055898;28;19924;-68
2023/05/05 01:20:12;;;;;;;;;;;15.40;99.90;;;;;;5091347;22;19931;-68
2023/05/05 01:22:41;;;;;;;;;;;15.40;99.90;;;;;;5071012;28;20384;-68
2023/05/05 01:25:26;;;;;;;;;;;15.40;99.90;;;;;;5086751;28;20038;-68
2023/05/05 01:28:06;;;;;;;;;;;15.40;99.90;;;;;;5078392;28;19924;-69
2023/05/05 01:30:49;;;;;;;;;;;15.40;99.90;;;;;;5079066;28;20009;-68
2023/05/05 01:33:19;;;;;;;;;;;15.40;99.90;;;;;;5079885;28;19986;-67
2023/05/05 01:35:50;;;;;;;;;;;15.50;99.90;;;;;;5076150;28;19985;-68
2023/05/05 01:38:17;;;;;;;;;;;15.50;99.90;;;;;;5080506;28;19975;-68
2023/05/05 01:40:45;;;;;;;;;;;15.60;99.90;;;;;;5078057;28;20015;-68
2023/05/05 01:43:13;;;;;;;;;;;15.70;99.90;;;;;;5077249;28;19928;-68
2023/05/05 01:45:42;;;;;;;;;;;15.70;99.90;;;;;;5074045;28;19982;-69
2023/05/05 01:48:10;;;;;;;;;;;15.70;99.90;;;;;;5072939;28;20333;-67
2023/05/05 01:50:39;;;;;;;;;;;15.80;99.90;;;;;;5074826;28;20302;-68
2023/05/05 01:53:08;;;;;;;;;;;15.80;99.90;;;;;;5075430;28;20370;-67
2023/05/05 01:55:36;;;;;;;;;;;15.80;99.90;;;;;;5081545;28;20279;-68
2023/05/05 01:58:04;;;;;;;;;;;15.80;99.90;;;;;;5078646;28;19960;-67
2023/05/05 02:00:31;;;;;;;;;;;15.80;99.90;;;;;;5072013;28;19932;-67
2023/05/05 02:02:59;;;;;;;;;;;15.80;99.90;;;;;;5086201;28;20120;-68
2023/05/05 02:05:26;;;;;;;;;;;15.80;99.90;;;;;;5066686;28;20370;-68
2023/05/05 02:07:55;;;;;;;;;;;15.90;99.90;;;;;;5085524;28;19924;-68
2023/05/05 02:10:22;;;;;;;;;;;15.90;99.90;;;;;;5071648;28;19932;-68
2023/05/05 02:12:50;;;;;;;;;;;15.90;99.90;;;;;;5077548;28;19928;-68
2023/05/05 02:15:17;;;;;;;;;;;15.90;99.90;;;;;;5073300;28;19928;-68
2023/05/05 02:17:45;;;;;;;;;;;15.90;99.90;;;;;;5082167;28;19923;-68
2023/05/05 02:20:12;;;;;;;;;;;16.00;99.90;;;;;;5070185;28;19924;-68
2023/05/05 02:22:39;;;;;;;;;;;15.90;99.90;;;;;;5074760;28;19928;-68
2023/05/05 02:25:09;;;;;;;;;;;16.00;99.90;;;;;;5080831;28;19959;-68
2023/05/05 02:27:37;;;;;;;;;;;16.00;99.90;;;;;;5082228;28;19939;-68
2023/05/05 02:30:06;;;;;;;;;;;16.00;99.90;;;;;;5078140;28;19931;-68
2023/05/05 02:32:34;;;;;;;;;;;16.00;99.90;;;;;;5082128;28;19967;-67
2023/05/05 02:35:05;;;;;;;;;;;15.90;99.90;;;;;;5080802;28;19931;-68
2023/05/05 02:37:33;;;;;;;;;;;15.80;99.90;;;;;;5084847;28;19928;-68
2023/05/05 02:40:03;;;;;;;;;;;15.80;99.90;;;;;;5075486;28;20303;-67
2023/05/05 02:42:36;;;;;;;;;;;15.70;99.90;;;;;;5077668;28;19978;-68
2023/05/05 02:45:05;;;;;;;;;;;15.70;99.90;;;;;;5075224;28;19931;-68
2023/05/05 02:47:34;;;;;;;;;;;15.60;99.90;;;;;;5081087;28;19932;-69
2023/05/05 02:50:01;;;;;;;;;;;15.60;99.90;;;;;;5082250;28;19924;-68
2023/05/05 02:52:30;;;;;;;;;;;15.50;99.90;;;;;;5070971;28;19925;-68
2023/05/05 02:54:57;;;;;;;;;;;15.50;99.90;;;;;;5080051;28;19924;-68
2023/05/05 02:57:27;;;;;;;;;;;15.40;99.90;;;;;;5080313;28;19925;-68
2023/05/05 03:00:04;;;;;;;;;;;15.40;99.90;;;;;;5082035;28;19924;-68
2023/05/05 03:02:35;;;;;;;;;;;15.30;99.90;;;;;;5073011;28;19951;-68
2023/05/05 03:05:06;;;;;;;;;;;15.30;99.90;;;;;;5082180;28;20045;-67
2023/05/05 03:07:40;;;;;;;;;;;15.20;99.90;;;;;;5081406;28;19982;-67
2023/05/05 03:10:09;;;;;;;;;;;15.20;99.90;;;;;;5077129;28;19924;-68
2023/05/05 03:12:45;;;;;;;;;;;15.10;99.90;;;;;;5074735;28;19947;-67
2023/05/05 03:15:20;;;;;;;;;;;15.10;99.90;;;;;;5071185;28;19925;-68
2023/05/05 03:17:48;;;;;;;;;;;15.00;99.90;;;;;;5080196;28;19925;-68
2023/05/05 03:20:16;;;;;;;;;;;15.00;99.90;;;;;;5078395;28;20110;-68
2023/05/05 03:22:46;;;;;;;;;;;15.00;99.90;;;;;;5073796;28;19924;-67
2023/05/05 03:25:14;;;;;;;;;;;14.90;99.90;;;;;;5078505;28;19952;-68
2023/05/05 03:27:41;;;;;;;;;;;14.90;99.90;;;;;;5070951;28;20015;-68
2023/05/05 03:30:09;;;;;;;;;;;14.90;99.90;;;;;;5076153;28;20303;-68
2023/05/05 03:32:42;;;;;;;;;;;14.90;99.90;;;;;;5078449;28;20011;-67
2023/05/05 03:35:10;;;;;;;;;;;14.80;99.90;;;;;;5077152;28;20027;-68
2023/05/05 03:37:36;;;;;;;;;;;14.80;99.90;;;;;;5082043;28;19925;-67
2023/05/05 03:40:03;;;;;;;;;;;14.70;99.90;;;;;;5074758;28;20466;-68
2023/05/05 03:42:31;;;;;;;;;;;14.70;99.90;;;;;;5077452;28;20455;-68
2023/05/05 03:44:58;;;;;;;;;;;14.70;99.90;;;;;;5081644;28;19924;-68
2023/05/05 03:47:26;;;;;;;;;;;14.70;99.90;;;;;;5077552;28;19930;-68
2023/05/05 03:49:55;;;;;;;;;;;14.70;99.90;;;;;;5084005;28;19924;-68
2023/05/05 03:52:22;;;;;;;;;;;14.70;99.90;;;;;;5076460;28;19932;-68
2023/05/05 03:54:49;;;;;;;;;;;14.70;99.90;;;;;;5079132;28;19924;-68
2023/05/05 03:57:16;;;;;;;;;;;14.60;99.90;;;;;;5082671;28;19924;-67
2023/05/05 03:59:42;;;;;;;;;;;14.60;99.90;;;;;;5085299;28;20283;-67
2023/05/05 04:02:09;;;;;;;;;;;14.50;99.90;;;;;;5080918;28;20014;-68
2023/05/05 04:04:36;;;;;;;;;;;14.50;99.90;;;;;;5075014;28;19963;-67
2023/05/05 04:07:05;;;;;;;;;;;14.50;99.90;;;;;;5083996;28;19928;-71
2023/05/05 04:09:32;;;;;;;;;;;14.50;99.90;;;;;;5080738;28;19934;-68
2023/05/05 04:11:59;;;;;;;;;;;14.50;99.90;;;;;;5073628;28;20026;-65
2023/05/05 04:14:26;;;;;;;;;;;14.50;99.90;;;;;;5082586;28;19982;-67
2023/05/05 04:16:53;;;;;;;;;;;14.50;99.90;;;;;;5078518;28;19925;-68
2023/05/05 04:19:20;;;;;;;;;;;14.50;99.90;;;;;;5074679;28;19925;-68
2023/05/05 04:21:48;;;;;;;;;;;14.40;99.90;;;;;;5078106;28;19924;-67
2023/05/05 04:24:21;;;;;;;;;;;14.40;99.90;;;;;;5072281;28;20352;-67
2023/05/05 04:26:49;;;;;;;;;;;14.30;99.90;;;;;;5076721;28;19924;-68
2023/05/05 04:29:15;;;;;;;;;;;14.20;99.90;;;;;;5077243;28;19931;-66
2023/05/05 04:31:42;;;;;;;;;;;14.10;99.90;;;;;;5068837;28;19925;-69
2023/05/05 04:34:09;;;;;;;;;;;14.10;99.90;;;;;;5074533;28;20019;-68
2023/05/05 04:36:36;;;;;;;;;;;14.20;99.90;;;;;;5071376;28;20460;-68
2023/05/05 04:39:05;;;;;;;;;;;14.10;99.90;;;;;;5072846;28;19951;-68
2023/05/05 04:41:34;;;;;;;;;;;14.10;99.90;;;;;;5074104;28;19932;-68
2023/05/05 04:44:01;;;;;;;;;;;14.00;99.90;;;;;;5068734;28;19924;-68
2023/05/05 04:46:28;;;;;;;;;;;14.00;99.90;;;;;;5074379;28;19972;-68
2023/05/05 04:48:55;;;;;;;;;;;14.00;99.90;;;;;;5074569;28;19932;-67
2023/05/05 04:51:22;;;;;;;;;;;14.00;99.90;;;;;;5073372;28;19975;-66
2023/05/05 04:53:49;;;;;;;;;;;14.00;99.90;;;;;;5071141;28;20400;-67
2023/05/05 04:56:16;;;;;;;;;;;14.00;99.90;;;;;;5076250;28;20384;-68
2023/05/05 04:58:44;;;;;;;;;;;14.00;99.90;;;;;;5072113;28;20388;-68
2023/05/05 05:01:11;;;;;;;;;;;14.00;99.90;;;;;;5072626;28;19924;-69
2023/05/05 05:03:39;;;;;;;;;;;14.10;99.90;;;;;;5069985;28;19924;-68
2023/05/05 05:06:05;;;;;;;;;;;14.10;99.90;;;;;;5070165;28;19924;-68
2023/05/05 05:08:32;;;;;;;;;;;14.10;99.90;;;;;;5076707;28;19937;-69
2023/05/05 05:11:00;;;;;;;;;;;14.10;99.90;;;;;;5078111;28;20355;-69
2023/05/05 05:13:27;;;;;;;;;;;14.10;99.90;;;;;;5070470;28;19924;-68
2023/05/05 05:15:55;;;;;;;;;;;14.10;99.90;;;;;;5077486;28;19925;-68
2023/05/05 05:18:22;;;;;;;;;;;14.20;99.90;;;;;;5072558;28;19929;-73
2023/05/05 05:20:50;;;;;;;;;;;14.20;99.90;;;;;;5081647;28;19928;-68
2023/05/05 05:23:17;;;;;;;;;;;14.20;99.90;;;;;;5081506;28;19925;-68
2023/05/05 05:25:45;;;;;;;;;;;14.20;99.90;;;;;;5084908;28;19986;-68
2023/05/05 05:28:14;;;;;;;;;;;14.30;99.90;;;;;;5077784;28;19925;-68
2023/05/05 05:30:46;;;;;;;;;;;14.30;99.90;;;;;;5074868;28;20377;-68
2023/05/05 05:33:15;;;;;;;;;;;14.30;99.90;;;;;;5080187;28;19932;-70
2023/05/05 05:35:43;;;;;;;;;;;14.30;99.90;;;;;;5077501;28;19929;-67
2023/05/05 05:38:10;;;;;;;;;;;14.30;99.90;;;;;;5080787;28;19924;-67
2023/05/05 05:40:36;;;;;;;;;;;14.30;99.90;;;;;;5072648;28;19925;-68
2023/05/05 05:43:03;;;;;;;;;;;14.40;99.90;;;;;;5064870;28;19931;-66
2023/05/05 05:45:31;;;;;;;;;;;14.50;99.90;;;;;;5072204;28;19924;-66
2023/05/05 05:47:57;;;;;;;;;;;14.50;99.90;;;;;;5068965;28;19952;-68
2023/05/05 05:50:27;;;;;;;;;;;14.60;99.90;;;;;;5077192;28;19924;-66
2023/05/05 05:52:54;;;;;;;;;;;14.70;99.90;;;;;;5069911;28;19924;-66
2023/05/05 05:55:22;;;;;;;;;;;14.80;99.90;;;;;;5068135;28;19997;-65
2023/05/05 05:57:49;;;;;;;;;;;14.90;99.90;;;;;;5071999;28;20406;-66
2023/05/05 06:00:16;;;;;;;;;;;15.00;99.90;;;;;;5068443;28;20379;-65
2023/05/05 06:02:50;;;;;;;;;;;15.10;99.90;;;;;;5073355;28;19931;-66
2023/05/05 06:05:19;;;;;;;;;;;15.20;99.90;;;;;;5076342;28;19924;-66
2023/05/05 06:07:48;;;;;;;;;;;15.40;99.90;;;;;;5070282;28;20277;-66
2023/05/05 06:10:16;;;;;;;;;;;15.50;99.90;;;;;;5075075;28;19928;-65
2023/05/05 06:12:43;;;;;;;;;;;15.70;99.90;;;;;;5070130;28;20377;-66
2023/05/05 06:15:10;;;;;;;;;;;15.80;99.90;;;;;;5082618;28;19924;-65
2023/05/05 06:17:37;;;;;;;;;;;15.90;99.90;;;;;;5068035;28;20410;-67
2023/05/05 06:20:05;;;;;;;;;;;16.00;99.90;;;;;;5082095;28;19999;-65
2023/05/05 06:22:32;;;;;;;;;;;16.00;99.90;;;;;;5076901;28;19936;-67
2023/05/05 06:25:00;;;;;;;;;;;16.20;99.90;;;;;;5081530;28;20288;-68
2023/05/05 06:27:27;;;;;;;;;;;16.30;99.90;;;;;;5071001;28;20362;-70
2023/05/05 06:29:54;;;;;;;;;;;16.40;99.90;;;;;;5069656;28;19924;-67
2023/05/05 06:32:21;;;;;;;;;;;16.50;99.90;;;;;;5081318;28;19924;-67
2023/05/05 06:34:48;;;;;;;;;;;16.50;99.90;;;;;;5073745;28;19973;-66
2023/05/05 06:37:14;;;;;;;;;;;16.70;99.90;;;;;;5078025;28;19928;-67
2023/05/05 06:39:41;;;;;;;;;;;16.90;99.90;;;;;;5071250;28;19931;-67
2023/05/05 06:42:10;;;;;;;;;;;16.90;99.90;;;;;;5069760;28;19986;-67
2023/05/05 06:44:36;;;;;;;;;;;17.00;99.90;;;;;;5074762;28;19947;-69
2023/05/05 06:47:03;;;;;;;;;;;17.10;99.90;;;;;;5074774;28;20346;-67
2023/05/05 06:49:30;;;;;;;;;;;17.20;99.90;;;;;;5077172;28;20341;-67
2023/05/05 06:51:57;;;;;;;;;;;17.20;99.90;;;;;;5075999;28;20002;-66
2023/05/05 06:54:24;;;;;;;;;;;17.20;99.90;;;;;;5069615;28;19928;-68
2023/05/05 06:56:50;;;;;;;;;;;17.20;99.90;;;;;;5077880;28;19964;-67
2023/05/05 06:59:19;;;;;;;;;;;17.10;99.90;;;;;;5069432;28;19931;-68
2023/05/05 07:01:46;;;;;;;;;;;17.10;99.90;;;;;;5071914;28;19929;-67
2023/05/05 07:04:12;;;;;;;;;;;17.10;99.90;;;;;;5074780;28;19932;-67
2023/05/05 07:06:39;;;;;;;;;;;17.20;99.90;;;;;;5077544;28;20343;-68
2023/05/05 07:09:06;;;;;;;;;;;17.30;99.90;;;;;;5085499;28;19924;-67
2023/05/05 07:11:33;;;;;;;;;;;17.40;99.90;;;;;;5075482;28;19928;-67
2023/05/05 07:13:59;;;;;;;;;;;17.60;99.90;;;;;;5078029;28;19931;-68
2023/05/05 07:16:28;;;;;;;;;;;17.70;99.90;;;;;;5082068;28;19925;-67
2023/05/05 07:18:54;;;;;;;;;;;17.80;99.90;;;;;;5072022;28;20023;-67
2023/05/05 07:21:21;;;;;;;;;;;17.70;99.90;;;;;;5083847;28;19929;-67
2023/05/05 07:23:48;;;;;;;;;;;17.70;99.90;;;;;;5073138;28;19932;-68
2023/05/05 07:26:15;;;;;;;;;;;17.70;99.90;;;;;;5079143;28;19947;-67
2023/05/05 07:28:42;;;;;;;;;;;17.80;99.90;;;;;;5078916;28;19925;-67
2023/05/05 07:31:09;;;;;;;;;;;17.90;99.90;;;;;;5095156;28;19924;-67
2023/05/05 07:33:37;;;;;;;;;;;18.10;99.90;;;;;;5076140;28;19928;-67
2023/05/05 07:36:05;;;;;;;;;;;18.00;99.90;;;;;;5077632;28;19925;-67
2023/05/05 07:38:31;;;;;;;;;;;18.10;99.90;;;;;;5073152;28;19925;-67
2023/05/05 07:40:58;;;;;;;;;;;18.10;99.90;;;;;;5082298;28;19924;-67
2023/05/05 07:43:25;;;;;;;;;;;18.20;99.90;;;;;;5084476;28;19928;-67
2023/05/05 07:45:52;;;;;;;;;;;18.30;99.90;;;;;;5082108;28;19930;-69
2023/05/05 07:48:18;;;;;;;;;;;18.60;99.90;;;;;;5082462;28;19928;-66
2023/05/05 07:50:46;;;;;;;;;;;18.80;99.90;;;;;;5077652;28;19929;-67
2023/05/05 07:53:13;;;;;;;;;;;18.80;99.90;;;;;;5075881;28;19928;-66
2023/05/05 07:55:40;;;;;;;;;;;18.90;99.90;;;;;;5072043;28;19982;-67
2023/05/05 07:58:09;;;;;;;;;;;19.00;99.90;;;;;;5072283;28;20346;-67
2023/05/05 08:00:36;;;;;;;;;;;19.10;99.90;;;;;;5073525;28;19951;-68
2023/05/05 08:03:03;;;;;;;;;;;18.90;99.90;;;;;;5078501;28;19924;-68
2023/05/05 08:05:29;;;;;;;;;;;18.90;99.90;;;;;;5078364;28;19924;-67
2023/05/05 08:07:58;;;;;;;;;;;18.80;99.90;;;;;;5081790;28;19970;-67
2023/05/05 08:10:24;;;;;;;;;;;18.70;99.90;;;;;;5070620;28;19935;-68
2023/05/05 08:12:53;;;;;;;;;;;18.70;99.90;;;;;;5077793;28;19933;-68
2023/05/05 08:15:20;;;;;;;;;;;18.80;99.90;;;;;;5080083;28;19931;-69
2023/05/05 08:17:47;;;;;;;;;;;18.90;99.90;;;;;;5079929;28;20003;-68
2023/05/05 08:20:14;;;;;;;;;;;19.00;99.90;;;;;;5081884;28;19928;-67
2023/05/05 08:22:41;;;;;;;;;;;19.10;99.90;;;;;;5073459;28;19928;-67
2023/05/05 08:25:10;;;;;;;;;;;19.30;99.90;;;;;;5079834;28;19981;-68
2023/05/05 08:27:37;;;;;;;;;;;19.40;99.90;;;;;;5072546;28;19928;-67
2023/05/05 08:30:05;;;;;;;;;;;19.70;99.90;;;;;;5081126;28;19931;-68
2023/05/05 08:32:31;;;;;;;;;;;19.80;99.90;;;;;;5078260;28;19940;-69
2023/05/05 08:34:58;;;;;;;;;;;20.10;99.90;;;;;;5079609;28;19924;-68
2023/05/05 08:37:25;;;;;;;;;;;20.30;99.90;;;;;;5082028;28;20407;-68
2023/05/05 08:39:52;;;;;;;;;;;20.50;99.90;;;;;;5076400;28;19955;-68
2023/05/05 08:42:20;;;;;;;;;;;20.70;99.90;;;;;;5080006;28;19986;-68
2023/05/05 08:44:47;;;;;;;;;;;20.70;99.90;;;;;;5073683;28;20007;-68
2023/05/05 08:47:15;;;;;;;;;;;20.70;99.90;;;;;;5080561;28;19979;-67
2023/05/05 08:49:44;;;;;;;;;;;20.50;99.90;;;;;;5076944;28;19932;-67
2023/05/05 08:52:13;;;;;;;;;;;20.90;99.90;;;;;;5077776;28;19924;-68
2023/05/05 08:54:43;;;;;;;;;;;20.70;99.90;;;;;;5075925;28;19931;-67
2023/05/05 08:57:10;;;;;;;;;;;20.80;99.90;;;;;;5075197;28;19931;-67
2023/05/05 08:59:39;;;;;;;;;;;20.80;99.90;;;;;;5076406;28;19924;-69
2023/05/05 09:02:07;;;;;;;;;;;20.80;99.90;;;;;;5078655;28;19935;-68
2023/05/05 09:04:34;;;;;;;;;;;21.00;99.90;;;;;;5075240;28;19924;-68
2023/05/05 09:07:01;;;;;;;;;;;21.30;99.90;;;;;;5080914;28;19929;-69
2023/05/05 09:09:28;;;;;;;;;;;21.50;99.90;;;;;;5080602;28;19924;-67
2023/05/05 09:11:55;;;;;;;;;;;21.60;99.90;;;;;;5076200;28;20433;-68
2023/05/05 09:14:22;;;;;;;;;;;21.80;99.90;;;;;;5079202;28;19931;-68
2023/05/05 09:16:50;;;;;;;;;;;21.90;99.90;;;;;;5072928;28;19935;-68
2023/05/05 09:19:17;;;;;;;;;;;21.90;99.90;;;;;;5073925;28;20307;-67
2023/05/05 09:21:47;;;;;;;;;;;21.90;99.90;;;;;;5073990;28;19924;-69
2023/05/05 09:24:14;;;;;;;;;;;21.70;99.90;;;;;;5083663;28;19924;-67
2023/05/05 09:26:42;;;;;;;;;;;21.50;99.90;;;;;;5069936;28;19931;-67
2023/05/05 09:29:08;;;;;;;;;;;21.30;99.90;;;;;;5070815;28;19924;-68
2023/05/05 09:31:36;;;;;;;;;;;21.50;99.90;;;;;;5073380;28;19928;-67
2023/05/05 09:34:15;;;;;;;;;;;21.60;99.90;;;;;;5079384;28;19928;-68
2023/05/05 09:36:43;;;;;;;;;;;21.60;99.90;;;;;;5082150;28;20387;-67
2023/05/05 09:39:10;;;;;;;;;;;21.60;99.90;;;;;;5071879;28;20299;-68
2023/05/05 09:41:37;;;;;;;;;;;21.60;99.90;;;;;;5083264;28;20303;-68
2023/05/05 09:44:04;;;;;;;;;;;21.50;99.90;;;;;;5076849;28;20474;-68
2023/05/05 09:46:31;;;;;;;;;;;21.50;99.90;;;;;;5080612;28;19950;-69
2023/05/05 09:49:11;;;;;;;;;;;21.80;99.90;;;;;;5078923;28;19939;-66
2023/05/05 09:51:39;;;;;;;;;;;21.60;99.90;;;;;;5075104;28;20303;-68
2023/05/05 09:54:06;;;;;;;;;;;21.60;99.90;;;;;;5075252;28;19929;-69
2023/05/05 09:56:37;;;;;;;;;;;21.40;99.90;;;;;;5070124;28;19974;-67
2023/05/05 09:59:10;;;;;;;;;;;21.20;99.90;;;;;;5070224;28;19924;-67
2023/05/05 10:01:37;;;;;;;;;;;21.20;99.90;;;;;;5069929;28;19924;-68
2023/05/05 10:04:04;;;;;;;;;;;21.10;99.90;;;;;;5074487;28;19924;-68
2023/05/05 10:06:42;;;;;;;;;;;21.10;99.90;;;;;;5078218;28;19925;-67
2023/05/05 10:09:09;;;;;;;;;;;21.20;99.90;;;;;;5078092;28;19924;-68
2023/05/05 10:11:36;;;;;;;;;;;21.20;99.90;;;;;;5069785;28;19924;-69
2023/05/05 10:14:06;;;;;;;;;;;21.10;99.90;;;;;;5079117;28;20342;-69
2023/05/05 10:16:33;;;;;;;;;;;20.90;99.90;;;;;;5074848;28;20292;-68
2023/05/05 10:19:02;;;;;;;;;;;20.60;99.90;;;;;;5073030;28;19929;-68
2023/05/05 10:21:32;;;;;;;;;;;20.70;99.90;;;;;;5069243;28;19924;-69
2023/05/05 10:24:06;;;;;;;;;;;20.60;99.90;;;;;;5069435;28;19928;-67
2023/05/05 10:26:34;;;;;;;;;;;20.70;99.90;;;;;;5079053;28;19925;-68
2023/05/05 10:29:02;;;;;;;;;;;20.80;99.90;;;;;;5073985;28;19924;-68
2023/05/05 10:31:31;;;;;;;;;;;20.80;99.90;;;;;;5083807;28;19931;-68
2023/05/05 10:34:00;;;;;;;;;;;20.80;99.90;;;;;;5083263;28;20456;-68
2023/05/05 10:36:27;;;;;;;;;;;20.70;99.90;;;;;;5077138;28;19931;-68
2023/05/05 10:38:56;;;;;;;;;;;20.60;99.90;;;;;;5078599;28;19925;-67
2023/05/05 10:41:24;;;;;;;;;;;20.50;99.90;;;;;;5075928;28;19924;-68
2023/05/05 10:43:51;;;;;;;;;;;20.40;99.90;;;;;;5075387;28;19931;-68
2023/05/05 10:46:18;;;;;;;;;;;20.20;99.90;;;;;;5076189;28;20388;-68
2023/05/05 10:48:47;;;;;;;;;;;20.10;99.90;;;;;;5073651;28;19976;-68
2023/05/05 10:51:25;;;;;;;;;;;20.00;99.90;;;;;;5073896;28;19924;-68
2023/05/05 10:53:56;;;;;;;;;;;20.00;99.90;;;;;;5076515;28;19934;-67
2023/05/05 10:56:26;;;;;;;;;;;20.10;99.90;;;;;;5069202;28;19978;-67
2023/05/05 10:58:53;;;;;;;;;;;20.10;99.90;;;;;;5073874;28;19932;-68
2023/05/05 11:01:30;;;;;;;;;;;20.10;99.90;;;;;;5067442;28;19931;-68
2023/05/05 11:04:15;;;;;;;;;;;19.90;99.90;;;;;;5069775;28;19925;-67
2023/05/05 11:07:07;;;;;;;;;;;19.70;99.90;;;;;;5068570;28;19983;-68
2023/05/05 11:09:37;;;;;;;;;;;19.30;99.90;;;;;;5074612;28;19970;-68
2023/05/05 11:12:06;;;;;;;;;;;19.00;99.90;;;;;;5077453;28;20303;-67
2023/05/05 11:14:32;;;;;;;;;;;18.90;99.90;;;;;;5070961;28;19932;-68
2023/05/05 11:16:59;;;;;;;;;;;18.90;99.90;;;;;;5072794;28;19925;-67
2023/05/05 11:19:45;;;;;;;;;;;18.80;99.90;;;;;;5071549;28;20392;-67
2023/05/05 11:22:12;;;;;;;;;;;18.60;99.90;;;;;;5069984;28;19924;-68
2023/05/05 11:24:41;;;;;;;;;;;18.70;99.90;;;;;;5073221;28;20444;-67
2023/05/05 11:27:10;;;;;;;;;;;18.70;99.90;;;;;;5075461;28;19932;-68
2023/05/05 11:29:55;;;;;;;;;;;18.70;99.90;;;;;;5077459;28;19929;-69
2023/05/05 11:32:23;;;;;;;;;;;18.80;99.90;;;;;;5070801;28;20341;-68
2023/05/05 11:34:50;;;;;;;;;;;19.00;99.90;;;;;;5074192;28;19925;-69
2023/05/05 11:37:17;;;;;;;;;;;19.20;99.90;;;;;;5074292;28;19963;-68
2023/05/05 11:39:49;;;;;;;;;;;19.60;99.90;;;;;;5068580;28;19936;-67
2023/05/05 11:42:24;;;;;;;;;;;19.90;99.90;;;;;;5069689;28;19928;-68
2023/05/05 11:44:51;;;;;;;;;;;20.10;99.90;;;;;;5075775;28;19952;-67
2023/05/05 11:47:25;;;;;;;;;;;20.30;99.90;;;;;;5072540;28;20288;-69
2023/05/05 11:49:52;;;;;;;;;;;20.40;99.90;;;;;;5085293;28;19924;-68
2023/05/05 11:52:18;;;;;;;;;;;20.30;99.90;;;;;;5079227;28;19974;-68
2023/05/05 11:54:47;;;;;;;;;;;20.10;99.90;;;;;;5077108;28;19978;-67
2023/05/05 11:57:14;;;;;;;;;;;20.10;99.90;;;;;;5085990;28;19929;-68
2023/05/05 11:59:51;;;;;;;;;;;19.60;99.90;;;;;;5069877;28;19925;-68
2023/05/05 12:02:18;;;;;;;;;;;19.80;99.90;;;;;;5078994;28;20341;-68
2023/05/05 12:04:46;;;;;;;;;;;20.10;99.90;;;;;;5071734;28;20023;-68
2023/05/05 12:07:14;;;;;;;;;;;20.40;99.90;;;;;;5083903;28;19931;-67
2023/05/05 12:09:42;;;;;;;;;;;20.70;99.90;;;;;;5080471;28;19929;-67
2023/05/05 12:12:09;;;;;;;;;;;21.00;99.90;;;;;;5068618;28;19935;-68
2023/05/05 12:14:36;;;;;;;;;;;21.30;99.90;;;;;;5077306;28;19928;-68
2023/05/05 12:17:07;;;;;;;;;;;21.50;99.90;;;;;;5072273;28;19924;-67
2023/05/05 12:19:33;;;;;;;;;;;21.50;99.90;;;;;;5078204;28;19925;-68
2023/05/05 12:22:00;;;;;;;;;;;21.30;99.90;;;;;;5075658;28;19974;-68
2023/05/05 12:24:28;;;;;;;;;;;21.30;99.90;;;;;;5075101;28;19924;-67
2023/05/05 12:26:55;;;;;;;;;;;21.30;99.90;;;;;;5080201;28;19928;-68
2023/05/05 12:29:25;;;;;;;;;;;20.90;99.90;;;;;;5074066;28;19925;-68
2023/05/05 12:31:52;;;;;;;;;;;20.60;99.90;;;;;;5077053;28;19924;-68
2023/05/05 12:34:21;;;;;;;;;;;20.50;99.90;;;;;;5078896;28;19924;-68
2023/05/05 12:36:48;;;;;;;;;;;20.40;99.90;;;;;;5075522;28;19925;-68
2023/05/05 12:39:15;;;;;;;;;;;19.80;99.90;;;;;;5079812;28;20354;-67
2023/05/05 12:41:42;;;;;;;;;;;19.80;99.90;;;;;;5078720;28;19931;-67
2023/05/05 12:44:09;;;;;;;;;;;19.80;99.90;;;;;;5071568;28;19925;-69
2023/05/05 12:46:44;;;;;;;;;;;20.30;99.90;;;;;;5075227;28;19925;-67
2023/05/05 12:49:11;;;;;;;;;;;20.60;99.90;;;;;;5079768;28;19924;-68
2023/05/05 12:51:51;;;;;;;;;;;21.10;99.90;;;;;;5079611;28;20403;-67
2023/05/05 12:54:18;;;;;;;;;;;21.20;99.90;;;;;;5081073;28;19931;-68
2023/05/05 12:56:47;;;;;;;;;;;21.70;99.90;;;;;;5076944;28;19925;-70
2023/05/05 12:59:28;;;;;;;;;;;22.20;99.90;;;;;;5068941;28;19978;-68
2023/05/05 13:01:55;;;;;;;;;;;22.70;99.90;;;;;;5077286;28;19925;-66
2023/05/05 13:04:22;;;;;;;;;;;22.60;99.90;;;;;;5072277;28;19997;-68
2023/05/05 13:07:07;;;;;;;;;;;22.50;99.90;;;;;;5077649;28;20362;-67
2023/05/05 13:09:34;;;;;;;;;;;22.40;99.90;;;;;;5071428;28;19928;-68
2023/05/05 13:12:01;;;;;;;;;;;21.80;99.90;;;;;;5079248;28;19931;-68
2023/05/05 13:14:29;;;;;;;;;;;21.90;99.90;;;;;;5070888;28;20406;-68
2023/05/05 13:16:56;;;;;;;;;;;22.00;99.90;;;;;;5074003;28;20360;-68
2023/05/05 13:19:23;;;;;;;;;;;21.60;99.90;;;;;;5072831;28;19925;-68
2023/05/05 13:21:51;;;;;;;;;;;21.60;99.90;;;;;;5107143;22;19930;-68
2023/05/05 13:24:34;;;;;;;;;;;21.40;99.90;;;;;;5108400;27;19920;-70
2023/05/05 13:27:01;;;;;;;;;;;21.00;99.90;;;;;;5105672;27;19924;-71
2023/05/05 13:29:28;;;;;;;;;;;20.80;99.90;;;;;;5108648;28;20008;-69
2023/05/05 13:31:54;;;;;;;;;;;20.60;99.90;;;;;;5108136;28;20386;-71
2023/05/05 13:34:21;;;;;;;;;;;20.60;99.90;;;;;;5108568;28;19971;-69
2023/05/05 13:36:48;;;;;;;;;;;20.20;99.90;;;;;;5104983;28;20455;-68
2023/05/05 13:39:15;;;;;;;;;;;20.10;99.90;;;;;;5100807;28;19924;-69
2023/05/05 13:41:44;;;;;;;;;;;19.90;99.90;;;;;;5107522;27;19927;-68
2023/05/05 13:44:11;;;;;;;;;;;19.90;99.90;;;;;;5104361;28;20022;-67
2023/05/05 13:46:37;;;;;;;;;;;19.90;99.90;;;;;;5106948;28;19924;-70
2023/05/05 13:49:04;;;;;;;;;;;19.80;99.90;;;;;;5102965;27;19973;-69
2023/05/05 13:51:33;;;;;;;;;;;19.80;99.90;;;;;;5106640;28;20374;-68
2023/05/05 13:53:59;;;;;;;;;;;19.70;99.90;;;;;;5105297;27;19924;-68
2023/05/05 13:56:26;;;;;;;;;;;19.70;99.90;;;;;;5106603;28;19970;-68
2023/05/05 13:58:54;;;;;;;;;;;19.60;99.90;;;;;;5106670;27;19977;-69
2023/05/05 14:01:21;;;;;;;;;;;19.40;99.90;;;;;;5102719;28;19954;-69
2023/05/05 14:03:48;;;;;;;;;;;19.20;99.90;;;;;;5105773;27;19991;-69
2023/05/05 14:06:15;;;;;;;;;;;19.10;99.90;;;;;;5106323;28;19980;-68
2023/05/05 14:08:42;;;;;;;;;;;18.90;99.90;;;;;;5104739;27;20302;-68
2023/05/05 14:11:08;;;;;;;;;;;18.70;99.90;;;;;;5099819;28;20415;-69
2023/05/05 14:13:35;;;;;;;;;;;18.60;99.90;;;;;;5106388;28;19936;-69
2023/05/05 14:16:03;;;;;;;;;;;18.50;99.90;;;;;;5102552;28;19924;-72
2023/05/05 14:18:30;;;;;;;;;;;18.50;99.90;;;;;;5105140;28;20348;-68
2023/05/05 14:20:57;;;;;;;;;;;18.40;99.90;;;;;;5100403;28;19985;-68
2023/05/05 14:23:23;;;;;;;;;;;18.30;99.90;;;;;;5105448;28;20448;-66